sensor_id;sensor_type;location;lat;lon;timestamp;temperature;humidity
28530;DHT22;15737;49.760;6.632;2022-09-09T00:01:03;15.40;99.90
28530;DHT22;15737;49.760;6.632;2022-09-09T00:03:47;15.30;99.90
28530;DHT22;15737;49.760;6.632;2022-09-09T00:06:28;15.20;99.90
28530;DHT22;15737;49.760;6.632;2022-09-09T00:09:12;15.20;99.90
28530;DHT22;15737;49.760;6.632;2022-09-09T00:11:54;15.10;99.90
28530;DHT22;15737;49.760;6.632;2022-09-09T00:14:35;15.10;99.90
28530;DHT22;15737;49.760;6.632;2022-09-09T00:17:09;15.00;99.90
28530;DHT22;15737;49.760;6.632;2022-09-09T00:19:42;14.90;99.90
28530;DHT22;15737;49.760;6.632;2022-09-09T00:22:19;14.90;99.90
28530;DHT22;15737;49.760;6.632;2022-09-09T00:24:51;14.90;99.90
28530;DHT22;15737;49.760;6.632;2022-09-09T00:29:56;14.70;99.90
28530;DHT22;15737;49.760;6.632;2022-09-09T00:32:22;14.70;99.90
28530;DHT22;15737;49.760;6.632;2022-09-09T00:34:53;14.60;99.90
28530;DHT22;15737;49.760;6.632;2022-09-09T00:37:21;14.60;99.90
28530;DHT22;15737;49.760;6.632;2022-09-09T00:39:48;14.70;99.90
28530;DHT22;15737;49.760;6.632;2022-09-09T00:42:24;14.80;99.90
28530;DHT22;15737;49.760;6.632;2022-09-09T00:45:09;15.00;99.90
28530;DHT22;15737;49.760;6.632;2022-09-09T00:47:45;15.20;99.90
28530;DHT22;15737;49.760;6.632;2022-09-09T00:53:19;15.50;99.90
28530;DHT22;15737;49.760;6.632;2022-09-09T00:58:59;15.90;99.90
28530;DHT22;15737;49.760;6.632;2022-09-09T01:01:26;16.00;99.90
28530;DHT22;15737;49.760;6.632;2022-09-09T01:03:54;16.00;99.90
28530;DHT22;15737;49.760;6.632;2022-09-09T01:06:37;16.10;99.90
28530;DHT22;15737;49.760;6.632;2022-09-09T01:09:24;16.10;99.90
28530;DHT22;15737;49.760;6.632;2022-09-09T01:12:16;16.10;99.90
28530;DHT22;15737;49.760;6.632;2022-09-09T01:14:47;16.10;99.90
28530;DHT22;15737;49.760;6.632;2022-09-09T01:28:47;16.00;99.90
28530;DHT22;15737;49.760;6.632;2022-09-09T01:31:26;15.90;99.90
28530;DHT22;15737;49.760;6.632;2022-09-09T01:33:53;15.90;99.90
28530;DHT22;15737;49.760;6.632;2022-09-09T01:36:29;15.90;99.90
28530;DHT22;15737;49.760;6.632;2022-09-09T01:38:57;15.80;99.90
28530;DHT22;15737;49.760;6.632;2022-09-09T01:41:22;15.70;99.90
28530;DHT22;15737;49.760;6.632;2022-09-09T01:43:48;15.60;99.90
28530;DHT22;15737;49.760;6.632;2022-09-09T01:46:14;15.60;99.90
28530;DHT22;15737;49.760;6.632;2022-09-09T01:48:41;15.60;99.90
28530;DHT22;15737;49.760;6.632;2022-09-09T01:51:09;15.60;99.90
28530;DHT22;15737;49.760;6.632;2022-09-09T01:53:35;15.60;99.90
28530;DHT22;15737;49.760;6.632;2022-09-09T01:56:08;15.60;99.90
28530;DHT22;15737;49.760;6.632;2022-09-09T02:04:00;15.60;99.90
28530;DHT22;15737;49.760;6.632;2022-09-09T02:06:37;15.60;99.90
28530;DHT22;15737;49.760;6.632;2022-09-09T02:09:06;15.60;99.90
28530;DHT22;15737;49.760;6.632;2022-09-09T02:11:33;15.60;99.90
28530;DHT22;15737;49.760;6.632;2022-09-09T02:14:10;15.60;99.90
28530;DHT22;15737;49.760;6.632;2022-09-09T02:17:01;15.60;99.90
28530;DHT22;15737;49.760;6.632;2022-09-09T02:19:32;15.70;99.90
28530;DHT22;15737;49.760;6.632;2022-09-09T02:22:00;15.70;99.90
28530;DHT22;15737;49.760;6.632;2022-09-09T02:24:28;15.70;99.90
28530;DHT22;15737;49.760;6.632;2022-09-09T02:26:55;15.80;99.90
28530;DHT22;15737;49.760;6.632;2022-09-09T02:29:30;15.80;99.90
28530;DHT22;15737;49.760;6.632;2022-09-09T02:32:00;15.80;99.90
28530;DHT22;15737;49.760;6.632;2022-09-09T02:34:30;15.90;99.90
28530;DHT22;15737;49.760;6.632;2022-09-09T02:36:57;15.90;99.90
28530;DHT22;15737;49.760;6.632;2022-09-09T02:39:25;15.90;99.90
28530;DHT22;15737;49.760;6.632;2022-09-09T02:41:51;15.90;99.90
28530;DHT22;15737;49.760;6.632;2022-09-09T02:44:18;15.90;99.90
28530;DHT22;15737;49.760;6.632;2022-09-09T02:49:59;16.00;99.90
28530;DHT22;15737;49.760;6.632;2022-09-09T02:53:02;16.00;99.90
28530;DHT22;15737;49.760;6.632;2022-09-09T02:55:43;16.00;99.90
28530;DHT22;15737;49.760;6.632;2022-09-09T02:58:13;16.10;99.90
28530;DHT22;15737;49.760;6.632;2022-09-09T03:00:43;16.10;99.90
28530;DHT22;15737;49.760;6.632;2022-09-09T03:03:09;16.10;99.90
28530;DHT22;15737;49.760;6.632;2022-09-09T03:05:35;16.10;99.90
28530;DHT22;15737;49.760;6.632;2022-09-09T03:08:01;16.10;99.90
28530;DHT22;15737;49.760;6.632;2022-09-09T03:10:27;16.10;99.90
28530;DHT22;15737;49.760;6.632;2022-09-09T03:12:53;16.10;99.90
28530;DHT22;15737;49.760;6.632;2022-09-09T03:15:18;16.10;99.90
28530;DHT22;15737;49.760;6.632;2022-09-09T03:17:44;16.10;99.90
28530;DHT22;15737;49.760;6.632;2022-09-09T03:20:09;16.10;99.90
28530;DHT22;15737;49.760;6.632;2022-09-09T03:22:35;16.10;99.90
28530;DHT22;15737;49.760;6.632;2022-09-09T03:25:01;16.10;99.90
28530;DHT22;15737;49.760;6.632;2022-09-09T03:27:28;16.10;99.90
28530;DHT22;15737;49.760;6.632;2022-09-09T03:29:53;16.10;99.90
28530;DHT22;15737;49.760;6.632;2022-09-09T03:32:20;16.10;99.90
28530;DHT22;15737;49.760;6.632;2022-09-09T03:34:48;16.10;99.90
28530;DHT22;15737;49.760;6.632;2022-09-09T03:37:15;16.10;99.90
28530;DHT22;15737;49.760;6.632;2022-09-09T03:39:41;16.10;99.90
28530;DHT22;15737;49.760;6.632;2022-09-09T03:42:11;16.20;99.90
28530;DHT22;15737;49.760;6.632;2022-09-09T03:44:37;16.20;99.90
28530;DHT22;15737;49.760;6.632;2022-09-09T03:47:03;16.20;99.90
28530;DHT22;15737;49.760;6.632;2022-09-09T03:49:28;16.20;99.90
28530;DHT22;15737;49.760;6.632;2022-09-09T03:51:55;16.20;99.90
28530;DHT22;15737;49.760;6.632;2022-09-09T03:54:23;16.20;99.90
28530;DHT22;15737;49.760;6.632;2022-09-09T03:56:49;16.20;99.90
28530;DHT22;15737;49.760;6.632;2022-09-09T03:59:14;16.10;99.90
28530;DHT22;15737;49.760;6.632;2022-09-09T04:01:40;16.20;99.90
28530;DHT22;15737;49.760;6.632;2022-09-09T04:04:05;16.20;99.90
28530;DHT22;15737;49.760;6.632;2022-09-09T04:06:31;16.20;99.90
28530;DHT22;15737;49.760;6.632;2022-09-09T04:08:56;16.20;99.90
28530;DHT22;15737;49.760;6.632;2022-09-09T04:11:22;16.20;99.90
28530;DHT22;15737;49.760;6.632;2022-09-09T04:13:48;16.20;99.90
28530;DHT22;15737;49.760;6.632;2022-09-09T04:16:14;16.10;99.90
28530;DHT22;15737;49.760;6.632;2022-09-09T04:18:40;16.10;99.90
28530;DHT22;15737;49.760;6.632;2022-09-09T04:21:06;16.00;99.90
28530;DHT22;15737;49.760;6.632;2022-09-09T04:23:33;16.00;99.90
28530;DHT22;15737;49.760;6.632;2022-09-09T04:26:00;15.90;99.90
28530;DHT22;15737;49.760;6.632;2022-09-09T04:28:29;15.90;99.90
28530;DHT22;15737;49.760;6.632;2022-09-09T04:30:55;15.90;99.90
28530;DHT22;15737;49.760;6.632;2022-09-09T04:33:23;15.90;99.90
28530;DHT22;15737;49.760;6.632;2022-09-09T04:35:52;15.90;99.90
28530;DHT22;15737;49.760;6.632;2022-09-09T04:38:20;15.90;99.90
28530;DHT22;15737;49.760;6.632;2022-09-09T04:40:49;16.00;99.90
28530;DHT22;15737;49.760;6.632;2022-09-09T04:43:15;16.00;99.90
28530;DHT22;15737;49.760;6.632;2022-09-09T04:45:41;16.00;99.90
28530;DHT22;15737;49.760;6.632;2022-09-09T04:48:07;16.00;99.90
28530;DHT22;15737;49.760;6.632;2022-09-09T04:50:33;16.00;99.90
28530;DHT22;15737;49.760;6.632;2022-09-09T04:53:03;15.90;99.90
28530;DHT22;15737;49.760;6.632;2022-09-09T04:55:28;15.80;99.90
28530;DHT22;15737;49.760;6.632;2022-09-09T04:57:55;15.70;99.90
28530;DHT22;15737;49.760;6.632;2022-09-09T05:00:22;15.60;99.90
28530;DHT22;15737;49.760;6.632;2022-09-09T05:02:47;15.60;99.90
28530;DHT22;15737;49.760;6.632;2022-09-09T05:05:13;15.50;99.90
28530;DHT22;15737;49.760;6.632;2022-09-09T05:07:38;15.50;99.90
28530;DHT22;15737;49.760;6.632;2022-09-09T05:10:04;15.50;99.90
28530;DHT22;15737;49.760;6.632;2022-09-09T05:12:31;15.50;99.90
28530;DHT22;15737;49.760;6.632;2022-09-09T05:14:57;15.50;99.90
28530;DHT22;15737;49.760;6.632;2022-09-09T05:17:23;15.50;99.90
28530;DHT22;15737;49.760;6.632;2022-09-09T05:19:48;15.60;99.90
28530;DHT22;15737;49.760;6.632;2022-09-09T05:22:24;15.60;99.90
28530;DHT22;15737;49.760;6.632;2022-09-09T05:24:50;15.60;99.90
28530;DHT22;15737;49.760;6.632;2022-09-09T05:27:17;15.60;99.90
28530;DHT22;15737;49.760;6.632;2022-09-09T05:29:44;15.60;99.90
28530;DHT22;15737;49.760;6.632;2022-09-09T05:32:10;15.60;99.90
28530;DHT22;15737;49.760;6.632;2022-09-09T05:34:36;15.60;99.90
28530;DHT22;15737;49.760;6.632;2022-09-09T05:37:03;15.70;99.90
28530;DHT22;15737;49.760;6.632;2022-09-09T05:39:29;15.70;99.90
28530;DHT22;15737;49.760;6.632;2022-09-09T05:41:55;15.80;99.90
28530;DHT22;15737;49.760;6.632;2022-09-09T05:44:20;15.80;99.90
28530;DHT22;15737;49.760;6.632;2022-09-09T05:46:48;15.90;99.90
28530;DHT22;15737;49.760;6.632;2022-09-09T05:49:14;16.00;99.90
28530;DHT22;15737;49.760;6.632;2022-09-09T05:51:41;16.00;99.90
28530;DHT22;15737;49.760;6.632;2022-09-09T05:54:08;16.10;99.90
28530;DHT22;15737;49.760;6.632;2022-09-09T05:56:34;16.20;99.90
28530;DHT22;15737;49.760;6.632;2022-09-09T05:59:00;16.20;99.90
28530;DHT22;15737;49.760;6.632;2022-09-09T06:01:31;16.20;99.90
28530;DHT22;15737;49.760;6.632;2022-09-09T06:03:56;16.30;99.90
28530;DHT22;15737;49.760;6.632;2022-09-09T06:06:25;16.40;99.90
28530;DHT22;15737;49.760;6.632;2022-09-09T06:08:52;16.40;99.90
28530;DHT22;15737;49.760;6.632;2022-09-09T06:11:26;16.40;99.90
28530;DHT22;15737;49.760;6.632;2022-09-09T06:13:52;16.40;99.90
28530;DHT22;15737;49.760;6.632;2022-09-09T06:16:21;16.40;99.90
28530;DHT22;15737;49.760;6.632;2022-09-09T06:18:48;16.40;99.90
28530;DHT22;15737;49.760;6.632;2022-09-09T06:21:22;16.30;99.90
28530;DHT22;15737;49.760;6.632;2022-09-09T06:23:49;16.30;99.90
28530;DHT22;15737;49.760;6.632;2022-09-09T06:26:36;16.20;99.90
28530;DHT22;15737;49.760;6.632;2022-09-09T06:29:03;16.20;99.90
28530;DHT22;15737;49.760;6.632;2022-09-09T06:31:30;16.20;99.90
28530;DHT22;15737;49.760;6.632;2022-09-09T06:33:57;16.20;99.90
28530;DHT22;15737;49.760;6.632;2022-09-09T06:36:25;16.30;99.90
28530;DHT22;15737;49.760;6.632;2022-09-09T06:38:51;16.40;99.90
28530;DHT22;15737;49.760;6.632;2022-09-09T06:41:18;17.20;99.90
28530;DHT22;15737;49.760;6.632;2022-09-09T06:43:45;18.60;99.90
28530;DHT22;15737;49.760;6.632;2022-09-09T06:46:22;18.70;99.90
28530;DHT22;15737;49.760;6.632;2022-09-09T06:48:48;18.70;99.90
28530;DHT22;15737;49.760;6.632;2022-09-09T06:51:19;18.30;99.90
28530;DHT22;15737;49.760;6.632;2022-09-09T06:53:47;17.90;99.90
28530;DHT22;15737;49.760;6.632;2022-09-09T06:56:27;17.60;99.90
28530;DHT22;15737;49.760;6.632;2022-09-09T06:58:55;17.30;99.90
28530;DHT22;15737;49.760;6.632;2022-09-09T07:01:23;17.30;99.90
28530;DHT22;15737;49.760;6.632;2022-09-09T07:03:50;17.80;99.90
28530;DHT22;15737;49.760;6.632;2022-09-09T07:06:19;18.20;99.90
28530;DHT22;15737;49.760;6.632;2022-09-09T07:08:56;18.00;99.90
28530;DHT22;15737;49.760;6.632;2022-09-09T07:11:25;17.70;99.90
28530;DHT22;15737;49.760;6.632;2022-09-09T07:13:52;17.50;99.90
28530;DHT22;15737;49.760;6.632;2022-09-09T07:16:20;17.30;99.90
28530;DHT22;15737;49.760;6.632;2022-09-09T07:18:46;17.90;99.90
28530;DHT22;15737;49.760;6.632;2022-09-09T07:21:13;18.30;99.90
28530;DHT22;15737;49.760;6.632;2022-09-09T07:23:40;18.30;99.90
28530;DHT22;15737;49.760;6.632;2022-09-09T07:26:13;17.80;99.90
28530;DHT22;15737;49.760;6.632;2022-09-09T07:28:40;17.70;99.90
28530;DHT22;15737;49.760;6.632;2022-09-09T07:31:08;17.90;99.90
28530;DHT22;15737;49.760;6.632;2022-09-09T07:33:39;18.20;99.90
28530;DHT22;15737;49.760;6.632;2022-09-09T07:36:17;18.30;99.90
28530;DHT22;15737;49.760;6.632;2022-09-09T07:38:48;18.40;99.90
28530;DHT22;15737;49.760;6.632;2022-09-09T07:41:19;18.30;99.90
28530;DHT22;15737;49.760;6.632;2022-09-09T07:43:46;18.00;99.90
28530;DHT22;15737;49.760;6.632;2022-09-09T07:46:14;17.70;99.90
28530;DHT22;15737;49.760;6.632;2022-09-09T07:48:47;17.40;99.90
28530;DHT22;15737;49.760;6.632;2022-09-09T07:51:17;17.20;99.90
28530;DHT22;15737;49.760;6.632;2022-09-09T07:53:45;17.10;99.90
28530;DHT22;15737;49.760;6.632;2022-09-09T07:56:15;17.10;99.90
28530;DHT22;15737;49.760;6.632;2022-09-09T07:58:44;17.10;99.90
28530;DHT22;15737;49.760;6.632;2022-09-09T08:01:18;17.30;99.90
28530;DHT22;15737;49.760;6.632;2022-09-09T08:06:12;17.60;99.90
28530;DHT22;15737;49.760;6.632;2022-09-09T08:08:38;17.90;99.90
28530;DHT22;15737;49.760;6.632;2022-09-09T08:11:10;18.10;99.90
28530;DHT22;15737;49.760;6.632;2022-09-09T08:13:36;18.20;99.90
28530;DHT22;15737;49.760;6.632;2022-09-09T08:16:17;18.00;99.90
28530;DHT22;15737;49.760;6.632;2022-09-09T08:18:43;17.70;99.90
28530;DHT22;15737;49.760;6.632;2022-09-09T08:21:15;17.60;99.90
28530;DHT22;15737;49.760;6.632;2022-09-09T08:23:44;17.50;99.90
28530;DHT22;15737;49.760;6.632;2022-09-09T08:26:16;17.40;99.90
28530;DHT22;15737;49.760;6.632;2022-09-09T08:28:43;17.50;99.90
28530;DHT22;15737;49.760;6.632;2022-09-09T08:31:17;17.60;99.90
28530;DHT22;15737;49.760;6.632;2022-09-09T08:33:43;17.70;99.90
28530;DHT22;15737;49.760;6.632;2022-09-09T08:36:16;17.70;99.90
28530;DHT22;15737;49.760;6.632;2022-09-09T08:38:43;17.70;99.90
28530;DHT22;15737;49.760;6.632;2022-09-09T08:52:12;15.50;99.90
28530;DHT22;15737;49.760;6.632;2022-09-09T08:54:38;15.30;99.90
28530;DHT22;15737;49.760;6.632;2022-09-09T08:57:11;15.30;99.90
28530;DHT22;15737;49.760;6.632;2022-09-09T08:59:39;15.30;99.90
28530;DHT22;15737;49.760;6.632;2022-09-09T09:02:22;15.40;99.90
28530;DHT22;15737;49.760;6.632;2022-09-09T09:05:09;15.50;99.90
28530;DHT22;15737;49.760;6.632;2022-09-09T09:13:01;16.10;99.90
28530;DHT22;15737;49.760;6.632;2022-09-09T09:15:36;16.20;99.90
28530;DHT22;15737;49.760;6.632;2022-09-09T09:18:04;16.40;99.90
28530;DHT22;15737;49.760;6.632;2022-09-09T09:20:52;16.60;99.90
28530;DHT22;15737;49.760;6.632;2022-09-09T09:23:23;17.40;99.90
28530;DHT22;15737;49.760;6.632;2022-09-09T09:25:50;18.20;99.90
28530;DHT22;15737;49.760;6.632;2022-09-09T09:28:23;18.70;99.90
28530;DHT22;15737;49.760;6.632;2022-09-09T09:30:50;18.80;99.90
28530;DHT22;15737;49.760;6.632;2022-09-09T09:33:27;18.80;99.90
28530;DHT22;15737;49.760;6.632;2022-09-09T09:35:54;18.80;99.90
28530;DHT22;15737;49.760;6.632;2022-09-09T09:38:23;18.80;99.90
28530;DHT22;15737;49.760;6.632;2022-09-09T09:40:56;18.50;99.90
28530;DHT22;15737;49.760;6.632;2022-09-09T09:43:33;18.20;99.90
28530;DHT22;15737;49.760;6.632;2022-09-09T09:45:59;17.90;99.90
28530;DHT22;15737;49.760;6.632;2022-09-09T09:48:26;17.80;99.90
28530;DHT22;15737;49.760;6.632;2022-09-09T09:50:55;18.00;99.90
28530;DHT22;15737;49.760;6.632;2022-09-09T09:53:30;18.30;99.90
28530;DHT22;15737;49.760;6.632;2022-09-09T09:58:31;21.20;99.90
28530;DHT22;15737;49.760;6.632;2022-09-09T10:00:59;22.90;99.90
28530;DHT22;15737;49.760;6.632;2022-09-09T10:03:30;24.70;95.80
28530;DHT22;15737;49.760;6.632;2022-09-09T10:05:56;25.00;94.00
28530;DHT22;15737;49.760;6.632;2022-09-09T10:08:25;26.50;88.30
28530;DHT22;15737;49.760;6.632;2022-09-09T10:19:31;24.30;84.00
28530;DHT22;15737;49.760;6.632;2022-09-09T10:22:14;22.80;87.90
28530;DHT22;15737;49.760;6.632;2022-09-09T10:33:55;22.00;92.00
28530;DHT22;15737;49.760;6.632;2022-09-09T10:36:24;22.00;90.90
28530;DHT22;15737;49.760;6.632;2022-09-09T10:39:04;22.60;90.90
28530;DHT22;15737;49.760;6.632;2022-09-09T10:41:53;24.20;87.30
28530;DHT22;15737;49.760;6.632;2022-09-09T10:47:44;27.60;73.10
28530;DHT22;15737;49.760;6.632;2022-09-09T10:56:18;24.80;73.40
28530;DHT22;15737;49.760;6.632;2022-09-09T10:59:22;23.70;76.70
28530;DHT22;15737;49.760;6.632;2022-09-09T11:04:37;22.60;79.80
28530;DHT22;15737;49.760;6.632;2022-09-09T11:07:07;22.60;80.50
28530;DHT22;15737;49.760;6.632;2022-09-09T11:09:49;22.50;80.50
28530;DHT22;15737;49.760;6.632;2022-09-09T11:12:19;22.60;80.00
28530;DHT22;15737;49.760;6.632;2022-09-09T11:14:55;22.70;80.20
28530;DHT22;15737;49.760;6.632;2022-09-09T11:17:39;22.50;80.60
28530;DHT22;15737;49.760;6.632;2022-09-09T11:20:06;22.30;81.40
28530;DHT22;15737;49.760;6.632;2022-09-09T11:22:48;21.80;82.70
28530;DHT22;15737;49.760;6.632;2022-09-09T11:25:20;21.30;84.60
28530;DHT22;15737;49.760;6.632;2022-09-09T11:31:00;21.10;87.20
28530;DHT22;15737;49.760;6.632;2022-09-09T11:41:45;24.50;76.10
28530;DHT22;15737;49.760;6.632;2022-09-09T11:44:12;23.30;79.20
28530;DHT22;15737;49.760;6.632;2022-09-09T11:46:42;22.40;82.00
28530;DHT22;15737;49.760;6.632;2022-09-09T11:49:47;21.60;84.80
28530;DHT22;15737;49.760;6.632;2022-09-09T11:52:38;21.30;87.30
28530;DHT22;15737;49.760;6.632;2022-09-09T11:55:25;21.70;87.00
28530;DHT22;15737;49.760;6.632;2022-09-09T11:58:05;22.00;86.30
28530;DHT22;15737;49.760;6.632;2022-09-09T12:00:38;21.50;86.80
28530;DHT22;15737;49.760;6.632;2022-09-09T12:03:06;21.80;87.30
28530;DHT22;15737;49.760;6.632;2022-09-09T12:05:51;22.90;84.50
28530;DHT22;15737;49.760;6.632;2022-09-09T12:08:26;24.30;81.40
28530;DHT22;15737;49.760;6.632;2022-09-09T12:10:58;24.90;79.40
28530;DHT22;15737;49.760;6.632;2022-09-09T12:13:26;25.10;79.00
28530;DHT22;15737;49.760;6.632;2022-09-09T12:15:57;25.70;77.20
28530;DHT22;15737;49.760;6.632;2022-09-09T12:24:08;24.30;81.00
28530;DHT22;15737;49.760;6.632;2022-09-09T12:31:52;23.60;82.30
28530;DHT22;15737;49.760;6.632;2022-09-09T12:34:41;23.10;84.10
28530;DHT22;15737;49.760;6.632;2022-09-09T12:40:03;22.40;85.70
28530;DHT22;15737;49.760;6.632;2022-09-09T12:42:29;22.00;86.70
28530;DHT22;15737;49.760;6.632;2022-09-09T12:44:57;22.00;87.30
28530;DHT22;15737;49.760;6.632;2022-09-09T12:50:23;22.20;87.90
28530;DHT22;15737;49.760;6.632;2022-09-09T12:52:52;22.90;85.10
28530;DHT22;15737;49.760;6.632;2022-09-09T12:55:28;23.10;83.80
28530;DHT22;15737;49.760;6.632;2022-09-09T12:57:56;22.70;84.60
28530;DHT22;15737;49.760;6.632;2022-09-09T13:00:24;22.30;86.00
28530;DHT22;15737;49.760;6.632;2022-09-09T13:05:18;23.10;84.10
28530;DHT22;15737;49.760;6.632;2022-09-09T13:07:44;23.90;79.10
28530;DHT22;15737;49.760;6.632;2022-09-09T13:10:14;23.50;77.10
28530;DHT22;15737;49.760;6.632;2022-09-09T13:12:42;22.80;79.30
28530;DHT22;15737;49.760;6.632;2022-09-09T13:15:19;22.30;81.40
28530;DHT22;15737;49.760;6.632;2022-09-09T13:17:51;22.30;81.30
28530;DHT22;15737;49.760;6.632;2022-09-09T13:20:18;22.40;79.60
28530;DHT22;15737;49.760;6.632;2022-09-09T13:22:45;22.40;79.60
28530;DHT22;15737;49.760;6.632;2022-09-09T13:27:40;22.40;78.90
28530;DHT22;15737;49.760;6.632;2022-09-09T13:30:28;22.40;79.40
28530;DHT22;15737;49.760;6.632;2022-09-09T13:35:56;22.90;78.50
28530;DHT22;15737;49.760;6.632;2022-09-09T13:38:22;23.50;76.30
28530;DHT22;15737;49.760;6.632;2022-09-09T13:40:57;23.20;77.30
28530;DHT22;15737;49.760;6.632;2022-09-09T13:43:25;22.80;77.40
28530;DHT22;15737;49.760;6.632;2022-09-09T13:45:59;22.30;79.20
28530;DHT22;15737;49.760;6.632;2022-09-09T13:48:26;21.90;80.70
28530;DHT22;15737;49.760;6.632;2022-09-09T13:51:00;21.50;82.10
28530;DHT22;15737;49.760;6.632;2022-09-09T13:53:26;21.20;83.50
28530;DHT22;15737;49.760;6.632;2022-09-09T13:55:52;21.00;83.70
28530;DHT22;15737;49.760;6.632;2022-09-09T13:58:18;20.70;84.60
28530;DHT22;15737;49.760;6.632;2022-09-09T14:00:44;20.70;85.30
28530;DHT22;15737;49.760;6.632;2022-09-09T14:03:10;20.60;85.40
28530;DHT22;15737;49.760;6.632;2022-09-09T14:05:36;20.30;91.10
28530;DHT22;15737;49.760;6.632;2022-09-09T14:08:07;18.90;96.70
28530;DHT22;15737;49.760;6.632;2022-09-09T14:10:33;17.10;99.90
28530;DHT22;15737;49.760;6.632;2022-09-09T14:13:01;16.00;99.90
28530;DHT22;15737;49.760;6.632;2022-09-09T14:15:26;15.40;99.90
28530;DHT22;15737;49.760;6.632;2022-09-09T14:17:52;15.00;99.90
28530;DHT22;15737;49.760;6.632;2022-09-09T14:20:17;14.70;99.90
28530;DHT22;15737;49.760;6.632;2022-09-09T14:22:44;14.60;99.90
28530;DHT22;15737;49.760;6.632;2022-09-09T14:25:10;14.50;99.90
28530;DHT22;15737;49.760;6.632;2022-09-09T14:27:36;14.50;99.90
28530;DHT22;15737;49.760;6.632;2022-09-09T14:30:04;14.50;99.90
28530;DHT22;15737;49.760;6.632;2022-09-09T14:32:29;14.50;99.90
28530;DHT22;15737;49.760;6.632;2022-09-09T14:34:55;14.40;99.90
28530;DHT22;15737;49.760;6.632;2022-09-09T14:37:20;14.30;99.90
28530;DHT22;15737;49.760;6.632;2022-09-09T14:39:46;14.20;99.90
28530;DHT22;15737;49.760;6.632;2022-09-09T14:42:13;14.20;99.90
28530;DHT22;15737;49.760;6.632;2022-09-09T14:44:39;14.10;99.90
28530;DHT22;15737;49.760;6.632;2022-09-09T14:47:08;14.20;99.90
28530;DHT22;15737;49.760;6.632;2022-09-09T14:49:37;14.20;99.90
28530;DHT22;15737;49.760;6.632;2022-09-09T14:52:04;14.30;99.90
28530;DHT22;15737;49.760;6.632;2022-09-09T14:54:31;14.30;99.90
28530;DHT22;15737;49.760;6.632;2022-09-09T14:56:57;14.40;99.90
28530;DHT22;15737;49.760;6.632;2022-09-09T14:59:23;14.40;99.90
28530;DHT22;15737;49.760;6.632;2022-09-09T15:01:48;14.50;99.90
28530;DHT22;15737;49.760;6.632;2022-09-09T15:04:14;14.70;99.90
28530;DHT22;15737;49.760;6.632;2022-09-09T15:06:40;14.90;99.90
28530;DHT22;15737;49.760;6.632;2022-09-09T15:09:08;15.10;99.90
28530;DHT22;15737;49.760;6.632;2022-09-09T15:11:35;15.30;99.90
28530;DHT22;15737;49.760;6.632;2022-09-09T15:14:08;15.40;99.90
28530;DHT22;15737;49.760;6.632;2022-09-09T15:16:34;15.70;99.90
28530;DHT22;15737;49.760;6.632;2022-09-09T15:19:01;16.00;99.90
28530;DHT22;15737;49.760;6.632;2022-09-09T15:21:29;16.10;99.90
28530;DHT22;15737;49.760;6.632;2022-09-09T15:23:56;16.20;99.90
28530;DHT22;15737;49.760;6.632;2022-09-09T15:26:21;16.30;99.90
28530;DHT22;15737;49.760;6.632;2022-09-09T15:28:47;16.50;99.90
28530;DHT22;15737;49.760;6.632;2022-09-09T15:31:17;16.60;99.90
28530;DHT22;15737;49.760;6.632;2022-09-09T15:36:21;17.00;99.90
28530;DHT22;15737;49.760;6.632;2022-09-09T15:38:48;17.00;99.90
28530;DHT22;15737;49.760;6.632;2022-09-09T15:41:14;17.10;99.90
28530;DHT22;15737;49.760;6.632;2022-09-09T15:43:47;17.10;99.90
28530;DHT22;15737;49.760;6.632;2022-09-09T15:48:45;16.90;99.90
28530;DHT22;15737;49.760;6.632;2022-09-09T15:51:11;16.80;99.90
28530;DHT22;15737;49.760;6.632;2022-09-09T15:53:38;16.60;99.90
28530;DHT22;15737;49.760;6.632;2022-09-09T15:56:05;16.40;99.90
28530;DHT22;15737;49.760;6.632;2022-09-09T15:58:34;15.90;99.90
28530;DHT22;15737;49.760;6.632;2022-09-09T16:01:03;15.50;99.90
28530;DHT22;15737;49.760;6.632;2022-09-09T16:03:30;15.10;99.90
28530;DHT22;15737;49.760;6.632;2022-09-09T16:05:58;15.00;99.90
28530;DHT22;15737;49.760;6.632;2022-09-09T16:08:24;15.00;99.90
28530;DHT22;15737;49.760;6.632;2022-09-09T16:10:50;14.90;99.90
28530;DHT22;15737;49.760;6.632;2022-09-09T16:13:16;14.70;99.90
28530;DHT22;15737;49.760;6.632;2022-09-09T16:15:41;14.60;99.90
28530;DHT22;15737;49.760;6.632;2022-09-09T16:18:07;14.50;99.90
28530;DHT22;15737;49.760;6.632;2022-09-09T16:20:33;14.40;99.90
28530;DHT22;15737;49.760;6.632;2022-09-09T16:22:58;14.40;99.90
28530;DHT22;15737;49.760;6.632;2022-09-09T16:25:26;14.30;99.90
28530;DHT22;15737;49.760;6.632;2022-09-09T16:27:52;14.40;99.90
28530;DHT22;15737;49.760;6.632;2022-09-09T16:30:18;14.40;99.90
28530;DHT22;15737;49.760;6.632;2022-09-09T16:32:43;14.50;99.90
28530;DHT22;15737;49.760;6.632;2022-09-09T16:35:09;14.50;99.90
28530;DHT22;15737;49.760;6.632;2022-09-09T16:37:34;14.50;99.90
28530;DHT22;15737;49.760;6.632;2022-09-09T16:40:00;14.60;99.90
28530;DHT22;15737;49.760;6.632;2022-09-09T16:42:28;14.60;99.90
28530;DHT22;15737;49.760;6.632;2022-09-09T16:44:53;14.60;99.90
28530;DHT22;15737;49.760;6.632;2022-09-09T16:47:19;14.70;99.90
28530;DHT22;15737;49.760;6.632;2022-09-09T16:49:44;14.70;99.90
28530;DHT22;15737;49.760;6.632;2022-09-09T16:52:10;14.70;99.90
28530;DHT22;15737;49.760;6.632;2022-09-09T16:54:36;14.80;99.90
28530;DHT22;15737;49.760;6.632;2022-09-09T16:57:01;14.80;99.90
28530;DHT22;15737;49.760;6.632;2022-09-09T16:59:26;14.80;99.90
28530;DHT22;15737;49.760;6.632;2022-09-09T17:01:52;14.70;99.90
28530;DHT22;15737;49.760;6.632;2022-09-09T17:04:20;14.70;99.90
28530;DHT22;15737;49.760;6.632;2022-09-09T17:06:50;14.60;99.90
28530;DHT22;15737;49.760;6.632;2022-09-09T17:09:17;14.60;99.90
28530;DHT22;15737;49.760;6.632;2022-09-09T17:11:43;14.60;99.90
28530;DHT22;15737;49.760;6.632;2022-09-09T17:14:13;14.60;99.90
28530;DHT22;15737;49.760;6.632;2022-09-09T17:16:39;14.60;99.90
28530;DHT22;15737;49.760;6.632;2022-09-09T17:19:05;14.70;99.90
28530;DHT22;15737;49.760;6.632;2022-09-09T17:21:32;14.80;99.90
28530;DHT22;15737;49.760;6.632;2022-09-09T17:23:58;14.90;99.90
28530;DHT22;15737;49.760;6.632;2022-09-09T17:26:26;14.90;99.90
28530;DHT22;15737;49.760;6.632;2022-09-09T17:28:52;14.90;99.90
28530;DHT22;15737;49.760;6.632;2022-09-09T17:31:18;14.90;99.90
28530;DHT22;15737;49.760;6.632;2022-09-09T17:33:48;14.90;99.90
28530;DHT22;15737;49.760;6.632;2022-09-09T17:38:41;14.90;99.90
28530;DHT22;15737;49.760;6.632;2022-09-09T17:41:16;14.90;99.90
28530;DHT22;15737;49.760;6.632;2022-09-09T17:43:42;14.80;99.90
28530;DHT22;15737;49.760;6.632;2022-09-09T17:46:17;14.80;99.90
28530;DHT22;15737;49.760;6.632;2022-09-09T17:48:45;14.70;99.90